Dougherty, TX

5:22 PM CDT on August 30, 2016 (GMT -0500)
Crosbyton, TX | | Change Station

Elev 3041 ft 33.69 °N, 101.24 °W | Updated 15 seconds ago

Mostly Cloudy
Mostly Cloudy
76.1 °F
Feels Like 76 °F
N
7.4
Wind Variable Wind from NE
Gusts 9.8 mph

Today
High -- | Low -- °F
--% Chance of Precip.
Yesterday
High -- | Low -- °F
Precip. -- in
Pressure 30.18 in
Visibility 10.0 miles
Clouds Scattered Clouds 1100 ft
Mostly Cloudy 1800 ft
Mostly Cloudy 2400 ft
Heat Index 76 °F
Dew Point 32 °F
Humidity 20%
Rainfall 0.11 in
Snow Depth Not available.
7:17 AM 8:12 PM
Waning Crescent, 2% visible
METAR KPVW 302215Z AUTO 08014G19KT 10SM SCT011 BKN018 BKN024 22/18 A3018 RMK AO2 LTG DSNT NE E AND SW T02160178
Pressure 30.18 in
Visibility 10.0 miles
Clouds Scattered Clouds 1100 ft
Mostly Cloudy 1800 ft
Mostly Cloudy 2400 ft
Heat Index 76 °F
Dew Point 32 °F
Humidity 20%
Rainfall 0.11 in
Snow Depth Not available.
7:17 AM 8:12 PM
Waning Crescent, 2% visible
METAR KPVW 302215Z AUTO 08014G19KT 10SM SCT011 BKN018 BKN024 22/18 A3018 RMK AO2 LTG DSNT NE E AND SW T02160178

10-Day Weather Forecast

Almanac

Astronomy

Aug. 30, 2016 Rise Set
Actual Time
Civil Twilight
Nautical Twilight
Astronomical Twilight
Moon
Length of Visible Light
Length of Day
Tomorrow will be .
, % of the Moon is Illuminated

Today's Extremes

State Highs State Lows

Community

WunderPhotos

Upload Photos

1,935,911 photos uploaded!

WunderBlog® & News

Nearby

Air Quality

  Air Quality AQ Index Pollutant
Not available.

Snow Depth

Station Depth Elevation

Earthquake Activity

City Distance Mag. Time & Date
Minimum magnitude displayed is 2.5.

Coastal Water Temperatures

Place Temperature

Stations

Nearby Weather Stations

Station Location Temp. Windchill Dew Point Humidity Wind Precip. Elev Updated Type
                   

Watches & Warnings

There are currently no watches in effect.